sensor_id;sensor_type;location;lat;lon;timestamp;P1;durP1;ratioP1;P2;durP2;ratioP2
76892;SDS011;65854;51.466;7.260;2023-02-25T00:00:43;13.13;;;1.57;;
76892;SDS011;65854;51.466;7.260;2023-02-25T00:03:11;9.15;;;1.58;;
76892;SDS011;65854;51.466;7.260;2023-02-25T00:05:39;12.45;;;1.83;;
76892;SDS011;65854;51.466;7.260;2023-02-25T00:08:06;11.05;;;1.50;;
76892;SDS011;65854;51.466;7.260;2023-02-25T00:10:35;12.50;;;1.48;;
76892;SDS011;65854;51.466;7.260;2023-02-25T00:13:02;13.13;;;1.70;;
76892;SDS011;65854;51.466;7.260;2023-02-25T00:15:28;8.07;;;1.20;;
76892;SDS011;65854;51.466;7.260;2023-02-25T00:17:54;8.95;;;1.60;;
76892;SDS011;65854;51.466;7.260;2023-02-25T00:20:20;10.23;;;1.50;;
76892;SDS011;65854;51.466;7.260;2023-02-25T00:22:46;14.85;;;1.80;;
76892;SDS011;65854;51.466;7.260;2023-02-25T00:25:12;14.18;;;1.70;;
76892;SDS011;65854;51.466;7.260;2023-02-25T00:27:40;13.70;;;1.63;;
76892;SDS011;65854;51.466;7.260;2023-02-25T00:30:07;10.80;;;1.45;;
76892;SDS011;65854;51.466;7.260;2023-02-25T00:32:34;10.90;;;1.40;;
76892;SDS011;65854;51.466;7.260;2023-02-25T00:35:00;7.45;;;1.10;;
76892;SDS011;65854;51.466;7.260;2023-02-25T00:37:26;11.93;;;1.50;;
76892;SDS011;65854;51.466;7.260;2023-02-25T00:39:52;8.47;;;1.30;;
76892;SDS011;65854;51.466;7.260;2023-02-25T00:42:18;10.63;;;1.70;;
76892;SDS011;65854;51.466;7.260;2023-02-25T00:44:44;13.57;;;1.63;;
76892;SDS011;65854;51.466;7.260;2023-02-25T00:47:12;10.93;;;1.30;;
76892;SDS011;65854;51.466;7.260;2023-02-25T00:49:38;9.13;;;1.27;;
76892;SDS011;65854;51.466;7.260;2023-02-25T00:52:04;9.98;;;1.30;;
76892;SDS011;65854;51.466;7.260;2023-02-25T00:54:32;12.50;;;1.53;;
76892;SDS011;65854;51.466;7.260;2023-02-25T00:56:58;6.68;;;1.20;;
76892;SDS011;65854;51.466;7.260;2023-02-25T00:59:24;9.65;;;1.40;;
76892;SDS011;65854;51.466;7.260;2023-02-25T01:01:49;12.97;;;1.63;;
76892;SDS011;65854;51.466;7.260;2023-02-25T01:04:15;12.43;;;1.83;;
76892;SDS011;65854;51.466;7.260;2023-02-25T01:06:44;9.53;;;2.23;;
76892;SDS011;65854;51.466;7.260;2023-02-25T01:09:10;13.43;;;1.90;;
76892;SDS011;65854;51.466;7.260;2023-02-25T01:11:39;10.05;;;1.35;;
76892;SDS011;65854;51.466;7.260;2023-02-25T01:14:09;13.73;;;2.00;;
76892;SDS011;65854;51.466;7.260;2023-02-25T01:16:38;10.68;;;1.83;;
76892;SDS011;65854;51.466;7.260;2023-02-25T01:19:08;13.85;;;1.88;;
76892;SDS011;65854;51.466;7.260;2023-02-25T01:21:41;9.60;;;1.50;;
76892;SDS011;65854;51.466;7.260;2023-02-25T01:24:10;13.90;;;1.90;;
76892;SDS011;65854;51.466;7.260;2023-02-25T01:26:51;8.90;;;1.37;;
76892;SDS011;65854;51.466;7.260;2023-02-25T01:29:25;12.10;;;1.60;;
76892;SDS011;65854;51.466;7.260;2023-02-25T01:32:10;11.52;;;1.30;;
76892;SDS011;65854;51.466;7.260;2023-02-25T01:34:38;14.73;;;1.80;;
76892;SDS011;65854;51.466;7.260;2023-02-25T01:37:04;12.73;;;1.67;;
76892;SDS011;65854;51.466;7.260;2023-02-25T01:39:31;12.10;;;1.93;;
76892;SDS011;65854;51.466;7.260;2023-02-25T01:41:57;12.07;;;1.92;;
76892;SDS011;65854;51.466;7.260;2023-02-25T01:46:59;12.98;;;1.80;;
76892;SDS011;65854;51.466;7.260;2023-02-25T01:51:55;13.33;;;1.70;;
76892;SDS011;65854;51.466;7.260;2023-02-25T01:54:24;11.13;;;1.65;;
76892;SDS011;65854;51.466;7.260;2023-02-25T01:56:50;12.18;;;1.77;;
76892;SDS011;65854;51.466;7.260;2023-02-25T01:59:19;13.80;;;2.00;;
76892;SDS011;65854;51.466;7.260;2023-02-25T02:01:46;14.48;;;2.22;;
76892;SDS011;65854;51.466;7.260;2023-02-25T02:04:12;13.35;;;1.70;;
76892;SDS011;65854;51.466;7.260;2023-02-25T02:06:43;12.63;;;1.50;;
76892;SDS011;65854;51.466;7.260;2023-02-25T02:09:11;15.13;;;2.53;;
76892;SDS011;65854;51.466;7.260;2023-02-25T02:11:39;12.27;;;1.80;;
76892;SDS011;65854;51.466;7.260;2023-02-25T02:14:05;13.60;;;1.67;;
76892;SDS011;65854;51.466;7.260;2023-02-25T02:16:42;10.88;;;1.85;;
76892;SDS011;65854;51.466;7.260;2023-02-25T02:22:34;12.05;;;1.95;;
76892;SDS011;65854;51.466;7.260;2023-02-25T02:41:34;10.90;;;1.85;;
76892;SDS011;65854;51.466;7.260;2023-02-25T02:44:09;11.27;;;1.47;;
76892;SDS011;65854;51.466;7.260;2023-02-25T02:47:02;7.93;;;1.42;;
76892;SDS011;65854;51.466;7.260;2023-02-25T02:49:43;11.43;;;2.15;;
76892;SDS011;65854;51.466;7.260;2023-02-25T02:52:15;10.32;;;1.50;;
76892;SDS011;65854;51.466;7.260;2023-02-25T02:54:47;12.07;;;1.30;;
76892;SDS011;65854;51.466;7.260;2023-02-25T02:57:17;15.27;;;1.33;;
76892;SDS011;65854;51.466;7.260;2023-02-25T02:59:46;12.80;;;1.60;;
76892;SDS011;65854;51.466;7.260;2023-02-25T03:02:20;13.18;;;1.77;;
76892;SDS011;65854;51.466;7.260;2023-02-25T03:04:53;14.65;;;1.83;;
76892;SDS011;65854;51.466;7.260;2023-02-25T03:07:22;15.07;;;2.00;;
76892;SDS011;65854;51.466;7.260;2023-02-25T03:09:49;13.47;;;2.10;;
76892;SDS011;65854;51.466;7.260;2023-02-25T03:12:18;16.38;;;1.83;;
76892;SDS011;65854;51.466;7.260;2023-02-25T03:14:44;11.40;;;1.58;;
76892;SDS011;65854;51.466;7.260;2023-02-25T03:17:19;12.57;;;2.53;;
76892;SDS011;65854;51.466;7.260;2023-02-25T03:22:45;10.38;;;1.83;;
76892;SDS011;65854;51.466;7.260;2023-02-25T03:25:13;15.52;;;2.00;;
76892;SDS011;65854;51.466;7.260;2023-02-25T03:27:49;12.63;;;1.57;;
76892;SDS011;65854;51.466;7.260;2023-02-25T03:30:20;13.95;;;2.13;;
76892;SDS011;65854;51.466;7.260;2023-02-25T03:32:55;11.70;;;1.83;;
76892;SDS011;65854;51.466;7.260;2023-02-25T03:35:24;13.13;;;1.80;;
76892;SDS011;65854;51.466;7.260;2023-02-25T03:37:53;8.45;;;1.40;;
76892;SDS011;65854;51.466;7.260;2023-02-25T03:40:26;10.03;;;1.70;;
76892;SDS011;65854;51.466;7.260;2023-02-25T03:42:53;11.60;;;2.22;;
76892;SDS011;65854;51.466;7.260;2023-02-25T03:45:26;11.00;;;1.58;;
76892;SDS011;65854;51.466;7.260;2023-02-25T03:47:52;12.10;;;1.80;;
76892;SDS011;65854;51.466;7.260;2023-02-25T03:50:20;13.45;;;1.92;;
76892;SDS011;65854;51.466;7.260;2023-02-25T03:52:52;12.23;;;1.60;;
76892;SDS011;65854;51.466;7.260;2023-02-25T03:55:18;14.10;;;1.60;;
76892;SDS011;65854;51.466;7.260;2023-02-25T03:57:44;17.98;;;2.03;;
76892;SDS011;65854;51.466;7.260;2023-02-25T04:02:47;17.35;;;1.77;;
76892;SDS011;65854;51.466;7.260;2023-02-25T04:05:14;17.00;;;1.23;;
76892;SDS011;65854;51.466;7.260;2023-02-25T04:07:44;12.10;;;1.50;;
76892;SDS011;65854;51.466;7.260;2023-02-25T04:10:11;12.50;;;1.80;;
76892;SDS011;65854;51.466;7.260;2023-02-25T04:12:38;10.48;;;1.70;;
76892;SDS011;65854;51.466;7.260;2023-02-25T04:15:04;14.00;;;2.00;;
76892;SDS011;65854;51.466;7.260;2023-02-25T04:17:30;15.53;;;1.70;;
76892;SDS011;65854;51.466;7.260;2023-02-25T04:19:56;9.50;;;1.90;;
76892;SDS011;65854;51.466;7.260;2023-02-25T04:22:22;13.10;;;1.52;;
76892;SDS011;65854;51.466;7.260;2023-02-25T04:24:48;11.63;;;1.40;;
76892;SDS011;65854;51.466;7.260;2023-02-25T04:27:14;13.45;;;1.40;;
76892;SDS011;65854;51.466;7.260;2023-02-25T04:29:40;11.90;;;1.60;;
76892;SDS011;65854;51.466;7.260;2023-02-25T04:32:06;15.73;;;1.60;;
76892;SDS011;65854;51.466;7.260;2023-02-25T04:34:32;15.30;;;2.15;;
76892;SDS011;65854;51.466;7.260;2023-02-25T04:36:58;11.02;;;1.70;;
76892;SDS011;65854;51.466;7.260;2023-02-25T04:39:26;12.18;;;1.42;;
76892;SDS011;65854;51.466;7.260;2023-02-25T04:41:52;12.47;;;1.70;;
76892;SDS011;65854;51.466;7.260;2023-02-25T04:44:18;17.13;;;2.05;;
76892;SDS011;65854;51.466;7.260;2023-02-25T04:46:44;18.85;;;1.70;;
76892;SDS011;65854;51.466;7.260;2023-02-25T04:49:09;10.30;;;1.40;;
76892;SDS011;65854;51.466;7.260;2023-02-25T04:51:36;14.23;;;2.25;;
76892;SDS011;65854;51.466;7.260;2023-02-25T04:54:02;13.10;;;1.60;;
76892;SDS011;65854;51.466;7.260;2023-02-25T04:56:28;11.90;;;1.80;;
76892;SDS011;65854;51.466;7.260;2023-02-25T04:58:55;16.67;;;2.00;;
76892;SDS011;65854;51.466;7.260;2023-02-25T05:01:21;12.37;;;2.00;;
76892;SDS011;65854;51.466;7.260;2023-02-25T05:03:47;12.55;;;1.40;;
76892;SDS011;65854;51.466;7.260;2023-02-25T05:06:13;14.03;;;1.57;;
76892;SDS011;65854;51.466;7.260;2023-02-25T05:08:39;12.07;;;1.67;;
76892;SDS011;65854;51.466;7.260;2023-02-25T05:11:05;16.83;;;1.40;;
76892;SDS011;65854;51.466;7.260;2023-02-25T05:13:30;13.60;;;1.60;;
76892;SDS011;65854;51.466;7.260;2023-02-25T05:16:06;15.00;;;1.80;;
76892;SDS011;65854;51.466;7.260;2023-02-25T05:18:37;11.40;;;1.17;;
76892;SDS011;65854;51.466;7.260;2023-02-25T05:21:06;13.65;;;1.52;;
76892;SDS011;65854;51.466;7.260;2023-02-25T05:23:33;13.40;;;1.80;;
76892;SDS011;65854;51.466;7.260;2023-02-25T05:25:59;16.03;;;1.90;;
76892;SDS011;65854;51.466;7.260;2023-02-25T05:28:25;15.02;;;1.67;;
76892;SDS011;65854;51.466;7.260;2023-02-25T05:30:50;8.30;;;1.37;;
76892;SDS011;65854;51.466;7.260;2023-02-25T05:33:17;14.23;;;1.73;;
76892;SDS011;65854;51.466;7.260;2023-02-25T05:35:43;13.30;;;1.57;;
76892;SDS011;65854;51.466;7.260;2023-02-25T05:38:08;14.32;;;2.03;;
76892;SDS011;65854;51.466;7.260;2023-02-25T05:40:34;14.00;;;2.13;;
76892;SDS011;65854;51.466;7.260;2023-02-25T05:43:02;11.60;;;1.33;;
76892;SDS011;65854;51.466;7.260;2023-02-25T05:45:27;14.83;;;1.60;;
76892;SDS011;65854;51.466;7.260;2023-02-25T05:47:53;18.77;;;2.13;;
76892;SDS011;65854;51.466;7.260;2023-02-25T05:50:18;10.93;;;1.77;;
76892;SDS011;65854;51.466;7.260;2023-02-25T05:52:44;13.33;;;1.50;;
76892;SDS011;65854;51.466;7.260;2023-02-25T05:55:10;12.30;;;1.50;;
76892;SDS011;65854;51.466;7.260;2023-02-25T05:57:36;15.98;;;1.60;;
76892;SDS011;65854;51.466;7.260;2023-02-25T06:00:03;13.77;;;1.33;;
76892;SDS011;65854;51.466;7.260;2023-02-25T06:02:33;11.47;;;1.30;;
76892;SDS011;65854;51.466;7.260;2023-02-25T06:04:59;12.13;;;1.63;;
76892;SDS011;65854;51.466;7.260;2023-02-25T06:07:27;13.23;;;1.50;;
76892;SDS011;65854;51.466;7.260;2023-02-25T06:09:57;14.13;;;1.80;;
76892;SDS011;65854;51.466;7.260;2023-02-25T06:12:25;11.40;;;1.30;;
76892;SDS011;65854;51.466;7.260;2023-02-25T06:14:52;15.02;;;2.03;;
76892;SDS011;65854;51.466;7.260;2023-02-25T06:17:18;14.45;;;1.65;;
76892;SDS011;65854;51.466;7.260;2023-02-25T06:19:43;15.03;;;1.70;;
76892;SDS011;65854;51.466;7.260;2023-02-25T06:22:09;13.48;;;1.10;;
76892;SDS011;65854;51.466;7.260;2023-02-25T06:24:35;13.57;;;1.53;;
76892;SDS011;65854;51.466;7.260;2023-02-25T06:27:00;12.82;;;1.52;;
76892;SDS011;65854;51.466;7.260;2023-02-25T06:29:26;14.83;;;1.40;;
76892;SDS011;65854;51.466;7.260;2023-02-25T06:31:52;12.18;;;1.58;;
76892;SDS011;65854;51.466;7.260;2023-02-25T06:34:18;13.70;;;1.73;;
76892;SDS011;65854;51.466;7.260;2023-02-25T06:36:44;13.20;;;1.60;;
76892;SDS011;65854;51.466;7.260;2023-02-25T06:39:10;9.25;;;1.52;;
76892;SDS011;65854;51.466;7.260;2023-02-25T06:41:36;14.93;;;1.90;;
76892;SDS011;65854;51.466;7.260;2023-02-25T06:44:01;17.23;;;1.97;;
76892;SDS011;65854;51.466;7.260;2023-02-25T06:46:28;13.98;;;1.70;;
76892;SDS011;65854;51.466;7.260;2023-02-25T06:48:54;12.30;;;1.40;;
76892;SDS011;65854;51.466;7.260;2023-02-25T06:51:21;11.50;;;1.45;;
76892;SDS011;65854;51.466;7.260;2023-02-25T06:53:47;11.93;;;1.50;;
76892;SDS011;65854;51.466;7.260;2023-02-25T06:56:14;12.35;;;1.48;;
76892;SDS011;65854;51.466;7.260;2023-02-25T06:58:39;14.38;;;2.05;;
76892;SDS011;65854;51.466;7.260;2023-02-25T07:01:06;12.63;;;1.70;;
76892;SDS011;65854;51.466;7.260;2023-02-25T07:03:33;20.40;;;2.30;;
76892;SDS011;65854;51.466;7.260;2023-02-25T07:05:59;11.80;;;1.58;;
76892;SDS011;65854;51.466;7.260;2023-02-25T07:08:24;13.70;;;1.50;;
76892;SDS011;65854;51.466;7.260;2023-02-25T07:10:50;16.95;;;1.80;;
76892;SDS011;65854;51.466;7.260;2023-02-25T07:13:16;17.97;;;1.80;;
76892;SDS011;65854;51.466;7.260;2023-02-25T07:15:41;17.00;;;1.50;;
76892;SDS011;65854;51.466;7.260;2023-02-25T07:18:07;15.05;;;2.00;;
76892;SDS011;65854;51.466;7.260;2023-02-25T07:20:34;15.60;;;1.70;;
76892;SDS011;65854;51.466;7.260;2023-02-25T07:23:03;13.50;;;1.70;;
76892;SDS011;65854;51.466;7.260;2023-02-25T07:25:29;12.45;;;1.65;;
76892;SDS011;65854;51.466;7.260;2023-02-25T07:27:55;16.70;;;1.70;;
76892;SDS011;65854;51.466;7.260;2023-02-25T07:30:21;16.83;;;1.80;;
76892;SDS011;65854;51.466;7.260;2023-02-25T07:32:46;16.20;;;2.00;;
76892;SDS011;65854;51.466;7.260;2023-02-25T07:35:12;15.80;;;1.73;;
76892;SDS011;65854;51.466;7.260;2023-02-25T07:37:38;13.10;;;1.65;;
76892;SDS011;65854;51.466;7.260;2023-02-25T07:40:04;18.42;;;2.08;;
76892;SDS011;65854;51.466;7.260;2023-02-25T07:42:36;13.80;;;1.67;;
76892;SDS011;65854;51.466;7.260;2023-02-25T07:45:05;13.85;;;1.58;;
76892;SDS011;65854;51.466;7.260;2023-02-25T07:47:32;14.00;;;1.70;;
76892;SDS011;65854;51.466;7.260;2023-02-25T07:49:58;16.37;;;2.40;;
76892;SDS011;65854;51.466;7.260;2023-02-25T07:52:23;13.68;;;1.88;;
76892;SDS011;65854;51.466;7.260;2023-02-25T07:54:49;16.87;;;2.60;;
76892;SDS011;65854;51.466;7.260;2023-02-25T07:57:15;17.25;;;1.90;;
76892;SDS011;65854;51.466;7.260;2023-02-25T07:59:41;13.80;;;1.93;;
76892;SDS011;65854;51.466;7.260;2023-02-25T08:02:06;16.67;;;2.25;;
76892;SDS011;65854;51.466;7.260;2023-02-25T08:04:34;13.63;;;2.10;;
76892;SDS011;65854;51.466;7.260;2023-02-25T08:07:01;11.73;;;1.90;;
76892;SDS011;65854;51.466;7.260;2023-02-25T08:09:28;18.55;;;1.95;;
76892;SDS011;65854;51.466;7.260;2023-02-25T08:11:55;16.85;;;2.58;;
76892;SDS011;65854;51.466;7.260;2023-02-25T08:14:21;16.48;;;2.58;;
76892;SDS011;65854;51.466;7.260;2023-02-25T08:16:49;12.65;;;2.25;;
76892;SDS011;65854;51.466;7.260;2023-02-25T08:19:17;15.83;;;2.70;;
76892;SDS011;65854;51.466;7.260;2023-02-25T08:21:45;12.30;;;2.55;;
76892;SDS011;65854;51.466;7.260;2023-02-25T08:24:10;19.23;;;2.08;;
76892;SDS011;65854;51.466;7.260;2023-02-25T08:26:36;18.20;;;2.30;;
76892;SDS011;65854;51.466;7.260;2023-02-25T08:29:03;16.10;;;1.90;;
76892;SDS011;65854;51.466;7.260;2023-02-25T08:31:31;15.45;;;1.85;;
76892;SDS011;65854;51.466;7.260;2023-02-25T08:33:58;14.40;;;2.00;;
76892;SDS011;65854;51.466;7.260;2023-02-25T08:36:29;10.90;;;1.57;;
76892;SDS011;65854;51.466;7.260;2023-02-25T08:38:56;11.93;;;1.80;;
76892;SDS011;65854;51.466;7.260;2023-02-25T08:41:22;13.60;;;1.73;;
76892;SDS011;65854;51.466;7.260;2023-02-25T08:43:53;12.98;;;2.13;;
76892;SDS011;65854;51.466;7.260;2023-02-25T08:46:24;12.15;;;1.50;;
76892;SDS011;65854;51.466;7.260;2023-02-25T08:48:53;15.00;;;1.80;;
76892;SDS011;65854;51.466;7.260;2023-02-25T08:51:19;10.65;;;1.70;;
76892;SDS011;65854;51.466;7.260;2023-02-25T08:53:47;10.13;;;1.80;;
76892;SDS011;65854;51.466;7.260;2023-02-25T08:56:14;15.02;;;1.73;;
76892;SDS011;65854;51.466;7.260;2023-02-25T08:58:40;13.70;;;1.80;;
76892;SDS011;65854;51.466;7.260;2023-02-25T09:01:10;12.57;;;1.60;;
76892;SDS011;65854;51.466;7.260;2023-02-25T09:03:39;10.13;;;1.67;;
76892;SDS011;65854;51.466;7.260;2023-02-25T09:06:20;9.10;;;1.35;;
76892;SDS011;65854;51.466;7.260;2023-02-25T09:08:53;15.75;;;1.85;;
76892;SDS011;65854;51.466;7.260;2023-02-25T09:11:20;10.30;;;1.50;;
76892;SDS011;65854;51.466;7.260;2023-02-25T09:13:47;9.15;;;1.48;;
76892;SDS011;65854;51.466;7.260;2023-02-25T09:16:13;10.55;;;1.50;;
76892;SDS011;65854;51.466;7.260;2023-02-25T09:18:41;10.43;;;1.55;;
76892;SDS011;65854;51.466;7.260;2023-02-25T09:21:08;10.77;;;1.90;;
76892;SDS011;65854;51.466;7.260;2023-02-25T09:23:36;12.05;;;2.58;;
76892;SDS011;65854;51.466;7.260;2023-02-25T09:26:05;12.25;;;1.95;;
76892;SDS011;65854;51.466;7.260;2023-02-25T09:28:31;9.97;;;1.83;;
76892;SDS011;65854;51.466;7.260;2023-02-25T09:30:59;10.65;;;2.10;;
76892;SDS011;65854;51.466;7.260;2023-02-25T09:33:26;7.78;;;1.67;;
76892;SDS011;65854;51.466;7.260;2023-02-25T09:35:53;7.85;;;1.50;;
76892;SDS011;65854;51.466;7.260;2023-02-25T09:38:19;9.83;;;1.50;;
76892;SDS011;65854;51.466;7.260;2023-02-25T09:40:45;10.50;;;1.98;;
76892;SDS011;65854;51.466;7.260;2023-02-25T09:43:20;10.27;;;1.40;;
76892;SDS011;65854;51.466;7.260;2023-02-25T09:46:00;10.70;;;1.30;;
76892;SDS011;65854;51.466;7.260;2023-02-25T09:48:37;10.57;;;1.35;;
76892;SDS011;65854;51.466;7.260;2023-02-25T09:51:23;9.13;;;1.60;;
76892;SDS011;65854;51.466;7.260;2023-02-25T09:54:03;7.68;;;1.40;;
76892;SDS011;65854;51.466;7.260;2023-02-25T09:56:48;8.55;;;1.08;;
76892;SDS011;65854;51.466;7.260;2023-02-25T09:59:14;7.80;;;1.20;;
76892;SDS011;65854;51.466;7.260;2023-02-25T10:04:50;10.87;;;1.30;;
76892;SDS011;65854;51.466;7.260;2023-02-25T10:07:45;13.55;;;1.20;;
76892;SDS011;65854;51.466;7.260;2023-02-25T10:10:44;9.32;;;1.13;;
76892;SDS011;65854;51.466;7.260;2023-02-25T10:16:01;8.73;;;1.02;;
76892;SDS011;65854;51.466;7.260;2023-02-25T10:26:58;2.95;;;0.50;;
76892;SDS011;65854;51.466;7.260;2023-02-25T10:29:38;4.00;;;0.55;;
76892;SDS011;65854;51.466;7.260;2023-02-25T10:32:19;6.20;;;0.60;;
76892;SDS011;65854;51.466;7.260;2023-02-25T10:34:52;4.38;;;0.50;;
76892;SDS011;65854;51.466;7.260;2023-02-25T10:37:21;5.07;;;0.50;;
76892;SDS011;65854;51.466;7.260;2023-02-25T10:39:52;4.72;;;0.60;;
76892;SDS011;65854;51.466;7.260;2023-02-25T10:42:20;3.28;;;0.60;;
76892;SDS011;65854;51.466;7.260;2023-02-25T10:44:46;6.27;;;0.80;;
76892;SDS011;65854;51.466;7.260;2023-02-25T10:47:15;2.58;;;0.50;;
76892;SDS011;65854;51.466;7.260;2023-02-25T10:58:19;4.38;;;0.98;;
76892;SDS011;65854;51.466;7.260;2023-02-25T11:03:44;7.13;;;0.80;;
76892;SDS011;65854;51.466;7.260;2023-02-25T11:06:25;6.60;;;0.70;;
76892;SDS011;65854;51.466;7.260;2023-02-25T11:08:54;7.07;;;0.80;;
76892;SDS011;65854;51.466;7.260;2023-02-25T11:11:29;4.18;;;0.50;;
76892;SDS011;65854;51.466;7.260;2023-02-25T11:14:02;7.95;;;0.70;;
76892;SDS011;65854;51.466;7.260;2023-02-25T11:16:38;7.47;;;0.90;;
76892;SDS011;65854;51.466;7.260;2023-02-25T11:19:12;5.20;;;0.70;;
76892;SDS011;65854;51.466;7.260;2023-02-25T11:21:42;6.07;;;0.80;;
76892;SDS011;65854;51.466;7.260;2023-02-25T11:24:11;6.65;;;0.80;;
76892;SDS011;65854;51.466;7.260;2023-02-25T11:26:47;6.05;;;0.70;;
76892;SDS011;65854;51.466;7.260;2023-02-25T11:29:16;6.68;;;0.70;;
76892;SDS011;65854;51.466;7.260;2023-02-25T11:31:56;7.15;;;0.93;;
76892;SDS011;65854;51.466;7.260;2023-02-25T11:34:33;4.63;;;0.67;;
76892;SDS011;65854;51.466;7.260;2023-02-25T11:37:30;4.43;;;0.70;;
76892;SDS011;65854;51.466;7.260;2023-02-25T11:40:19;6.43;;;0.90;;
76892;SDS011;65854;51.466;7.260;2023-02-25T11:45:48;8.23;;;1.00;;
76892;SDS011;65854;51.466;7.260;2023-02-25T11:48:29;8.13;;;1.30;;
76892;SDS011;65854;51.466;7.260;2023-02-25T11:51:18;5.97;;;0.75;;
76892;SDS011;65854;51.466;7.260;2023-02-25T11:58:53;2.97;;;0.60;;
76892;SDS011;65854;51.466;7.260;2023-02-25T12:13:24;4.10;;;0.80;;
76892;SDS011;65854;51.466;7.260;2023-02-25T12:16:20;6.07;;;1.13;;
76892;SDS011;65854;51.466;7.260;2023-02-25T12:22:37;10.38;;;1.20;;
76892;SDS011;65854;51.466;7.260;2023-02-25T12:28:02;9.90;;;1.20;;
76892;SDS011;65854;51.466;7.260;2023-02-25T12:33:36;4.60;;;0.87;;
76892;SDS011;65854;51.466;7.260;2023-02-25T12:36:48;6.03;;;0.80;;
76892;SDS011;65854;51.466;7.260;2023-02-25T12:39:46;6.78;;;1.17;;
76892;SDS011;65854;51.466;7.260;2023-02-25T12:45:55;5.82;;;1.10;;
76892;SDS011;65854;51.466;7.260;2023-02-25T12:48:46;8.20;;;1.10;;
76892;SDS011;65854;51.466;7.260;2023-02-25T12:54:31;6.88;;;0.80;;
76892;SDS011;65854;51.466;7.260;2023-02-25T13:03:17;5.40;;;0.80;;
76892;SDS011;65854;51.466;7.260;2023-02-25T13:14:27;5.90;;;0.90;;
76892;SDS011;65854;51.466;7.260;2023-02-25T13:20:19;4.22;;;0.77;;
76892;SDS011;65854;51.466;7.260;2023-02-25T13:31:38;4.40;;;0.80;;
76892;SDS011;65854;51.466;7.260;2023-02-25T13:34:27;8.02;;;1.45;;
76892;SDS011;65854;51.466;7.260;2023-02-25T13:37:02;3.88;;;0.88;;
76892;SDS011;65854;51.466;7.260;2023-02-25T13:43:28;6.15;;;0.90;;
76892;SDS011;65854;51.466;7.260;2023-02-25T13:53:57;7.60;;;0.70;;
76892;SDS011;65854;51.466;7.260;2023-02-25T13:56:54;5.80;;;0.70;;
76892;SDS011;65854;51.466;7.260;2023-02-25T14:11:41;3.92;;;0.40;;
76892;SDS011;65854;51.466;7.260;2023-02-25T14:14:26;3.67;;;0.40;;
76892;SDS011;65854;51.466;7.260;2023-02-25T14:22:42;2.88;;;0.30;;
76892;SDS011;65854;51.466;7.260;2023-02-25T14:39:35;5.38;;;0.57;;
76892;SDS011;65854;51.466;7.260;2023-02-25T14:45:49;2.03;;;0.40;;
76892;SDS011;65854;51.466;7.260;2023-02-25T14:48:34;3.42;;;0.40;;
76892;SDS011;65854;51.466;7.260;2023-02-25T14:54:27;3.92;;;0.52;;
76892;SDS011;65854;51.466;7.260;2023-02-25T15:08:17;3.83;;;0.50;;
76892;SDS011;65854;51.466;7.260;2023-02-25T15:13:58;3.20;;;0.50;;
76892;SDS011;65854;51.466;7.260;2023-02-25T15:22:14;2.50;;;0.30;;
76892;SDS011;65854;51.466;7.260;2023-02-25T15:24:43;2.33;;;0.30;;
76892;SDS011;65854;51.466;7.260;2023-02-25T15:30:01;3.63;;;0.70;;
76892;SDS011;65854;51.466;7.260;2023-02-25T15:32:29;6.35;;;0.70;;
76892;SDS011;65854;51.466;7.260;2023-02-25T15:43:00;1.73;;;0.47;;
76892;SDS011;65854;51.466;7.260;2023-02-25T15:45:50;4.25;;;0.60;;
76892;SDS011;65854;51.466;7.260;2023-02-25T16:03:39;2.35;;;0.35;;
76892;SDS011;65854;51.466;7.260;2023-02-25T16:09:09;4.95;;;0.60;;
76892;SDS011;65854;51.466;7.260;2023-02-25T16:11:46;3.88;;;0.52;;
76892;SDS011;65854;51.466;7.260;2023-02-25T16:14:30;4.07;;;0.85;;
76892;SDS011;65854;51.466;7.260;2023-02-25T16:17:02;5.85;;;0.70;;
76892;SDS011;65854;51.466;7.260;2023-02-25T16:19:53;5.18;;;0.65;;
76892;SDS011;65854;51.466;7.260;2023-02-25T16:22:23;3.73;;;0.50;;
76892;SDS011;65854;51.466;7.260;2023-02-25T16:24:53;3.65;;;0.60;;
76892;SDS011;65854;51.466;7.260;2023-02-25T16:30:10;5.55;;;0.50;;
76892;SDS011;65854;51.466;7.260;2023-02-25T16:40:44;2.72;;;0.40;;
76892;SDS011;65854;51.466;7.260;2023-02-25T16:43:12;3.83;;;0.60;;
76892;SDS011;65854;51.466;7.260;2023-02-25T16:45:42;4.55;;;0.65;;
76892;SDS011;65854;51.466;7.260;2023-02-25T16:48:17;2.73;;;0.50;;
76892;SDS011;65854;51.466;7.260;2023-02-25T16:51:22;2.92;;;0.77;;
76892;SDS011;65854;51.466;7.260;2023-02-25T16:53:52;2.83;;;0.40;;
76892;SDS011;65854;51.466;7.260;2023-02-25T16:56:21;3.90;;;0.68;;
76892;SDS011;65854;51.466;7.260;2023-02-25T16:58:57;3.60;;;0.60;;
76892;SDS011;65854;51.466;7.260;2023-02-25T17:01:38;3.20;;;0.43;;
76892;SDS011;65854;51.466;7.260;2023-02-25T17:04:11;4.75;;;0.65;;
76892;SDS011;65854;51.466;7.260;2023-02-25T17:06:41;6.47;;;0.95;;
76892;SDS011;65854;51.466;7.260;2023-02-25T17:09:20;6.05;;;0.80;;
76892;SDS011;65854;51.466;7.260;2023-02-25T17:11:52;6.18;;;0.80;;
76892;SDS011;65854;51.466;7.260;2023-02-25T17:14:19;7.53;;;1.00;;
76892;SDS011;65854;51.466;7.260;2023-02-25T17:16:45;4.28;;;0.95;;
76892;SDS011;65854;51.466;7.260;2023-02-25T17:19:12;4.80;;;0.80;;
76892;SDS011;65854;51.466;7.260;2023-02-25T17:21:41;4.25;;;0.60;;
76892;SDS011;65854;51.466;7.260;2023-02-25T17:24:11;5.13;;;0.70;;
76892;SDS011;65854;51.466;7.260;2023-02-25T17:26:42;3.60;;;0.57;;
76892;SDS011;65854;51.466;7.260;2023-02-25T17:29:12;4.10;;;0.63;;
76892;SDS011;65854;51.466;7.260;2023-02-25T17:31:52;4.50;;;0.60;;
76892;SDS011;65854;51.466;7.260;2023-02-25T17:34:29;4.93;;;0.70;;
76892;SDS011;65854;51.466;7.260;2023-02-25T17:36:57;5.45;;;0.70;;
76892;SDS011;65854;51.466;7.260;2023-02-25T17:39:27;4.10;;;0.77;;
76892;SDS011;65854;51.466;7.260;2023-02-25T17:41:53;5.47;;;0.60;;
76892;SDS011;65854;51.466;7.260;2023-02-25T17:47:00;3.80;;;0.57;;
76892;SDS011;65854;51.466;7.260;2023-02-25T17:49:28;5.28;;;0.80;;
76892;SDS011;65854;51.466;7.260;2023-02-25T17:51:57;4.50;;;0.70;;
76892;SDS011;65854;51.466;7.260;2023-02-25T17:54:26;4.45;;;0.57;;
76892;SDS011;65854;51.466;7.260;2023-02-25T17:56:54;4.00;;;0.60;;
76892;SDS011;65854;51.466;7.260;2023-02-25T18:01:59;8.02;;;1.00;;
76892;SDS011;65854;51.466;7.260;2023-02-25T18:04:38;3.83;;;0.70;;
76892;SDS011;65854;51.466;7.260;2023-02-25T18:09:57;5.13;;;0.80;;
76892;SDS011;65854;51.466;7.260;2023-02-25T18:12:31;4.78;;;0.80;;
76892;SDS011;65854;51.466;7.260;2023-02-25T18:15:05;3.28;;;0.50;;
76892;SDS011;65854;51.466;7.260;2023-02-25T18:17:40;4.37;;;0.70;;
76892;SDS011;65854;51.466;7.260;2023-02-25T18:20:24;7.57;;;0.95;;
76892;SDS011;65854;51.466;7.260;2023-02-25T18:22:51;5.00;;;0.77;;
76892;SDS011;65854;51.466;7.260;2023-02-25T18:25:28;4.53;;;0.60;;
76892;SDS011;65854;51.466;7.260;2023-02-25T18:27:54;4.72;;;0.85;;
76892;SDS011;65854;51.466;7.260;2023-02-25T18:30:21;5.43;;;1.10;;
76892;SDS011;65854;51.466;7.260;2023-02-25T18:32:49;6.97;;;1.08;;
76892;SDS011;65854;51.466;7.260;2023-02-25T18:35:15;6.10;;;0.90;;
76892;SDS011;65854;51.466;7.260;2023-02-25T18:37:41;5.57;;;0.90;;
76892;SDS011;65854;51.466;7.260;2023-02-25T18:40:30;6.45;;;1.00;;
76892;SDS011;65854;51.466;7.260;2023-02-25T18:42:57;6.27;;;1.23;;
76892;SDS011;65854;51.466;7.260;2023-02-25T18:45:24;4.88;;;1.00;;
76892;SDS011;65854;51.466;7.260;2023-02-25T18:47:52;4.63;;;0.90;;
76892;SDS011;65854;51.466;7.260;2023-02-25T18:50:20;7.47;;;1.08;;
76892;SDS011;65854;51.466;7.260;2023-02-25T18:52:47;7.57;;;1.00;;
76892;SDS011;65854;51.466;7.260;2023-02-25T18:55:17;7.37;;;1.17;;
76892;SDS011;65854;51.466;7.260;2023-02-25T18:57:45;6.20;;;0.90;;